Time;durP1;ratioP1;P1;durP2;ratioP2;P2;SDS_P1;SDS_P2;PMS_P1;PMS_P2;Temp;Humidity;BMP_temperature;BMP_pressure;BME280_temperature;BME280_humidity;BME280_pressure;Samples;Min_cycle;Max_cycle;Signal;HPM_P1;HPM_P2
2021/09/28 00:01:51;;;;;;;11.17;5.17;;;;;;;15.91;72.20;101123.50;5073289;58;21661;-89
2021/09/28 00:06:57;;;;;;;11.50;5.13;;;;;;;15.86;72.30;101129.77;5073278;58;21610;-88
2021/09/28 00:12:03;;;;;;;8.70;4.03;;;;;;;15.78;72.47;101125.10;5125086;57;21213;-87
2021/09/28 00:17:09;;;;;;;10.23;4.80;;;;;;;15.77;72.63;101124.75;5152293;57;21210;-87
2021/09/28 00:22:15;;;;;;;11.03;4.87;;;;;;;15.76;72.72;101115.05;5152187;57;21218;-85
2021/09/28 00:27:21;;;;;;;8.30;4.33;;;;;;;15.68;72.98;101107.76;5147239;57;21143;-89
2021/09/28 00:32:28;;;;;;;13.97;5.23;;;;;;;15.61;73.15;101110.61;5143184;57;21491;-86
2021/09/28 00:37:34;;;;;;;11.90;4.80;;;;;;;15.55;73.26;101107.17;5144081;57;21127;-89
2021/09/28 00:42:40;;;;;;;11.43;5.00;;;;;;;15.48;73.52;101104.66;5141386;57;21202;-88
2021/09/28 00:47:46;;;;;;;9.07;4.37;;;;;;;15.48;73.61;101104.16;5141640;57;21195;-89
2021/09/28 00:52:52;;;;;;;14.57;5.93;;;;;;;15.47;73.65;101104.30;5142296;57;22377;-85
2021/09/28 00:58:05;;;;;;;39.07;6.33;;;;;;;15.41;73.89;101099.04;5143275;57;21233;-89
2021/09/28 01:03:10;;;;;;;13.10;5.67;;;;;;;15.38;74.13;101105.13;5139958;57;21187;-87
2021/09/28 01:08:16;;;;;;;14.33;4.83;;;;;;;15.29;74.33;101100.59;5143244;57;21494;-86
2021/09/28 01:13:24;;;;;;;8.00;5.00;;;;;;;15.23;74.48;101102.48;5090434;57;21195;-86
2021/09/28 01:18:33;;;;;;;10.23;4.80;;;;;;;15.25;74.54;101106.70;5086123;58;21190;-88
2021/09/28 01:23:44;;;;;;;10.73;5.43;;;;;;;15.22;74.66;101102.13;5086157;58;21128;-88
2021/09/28 01:28:51;;;;;;;17.70;5.40;;;;;;;15.22;74.78;101107.45;5077619;58;22419;-85
2021/09/28 01:33:57;;;;;;;12.33;6.70;;;;;;;15.19;74.94;101110.38;5072829;58;21129;-85
2021/09/28 01:39:06;;;;;;;14.43;5.50;;;;;;;15.10;74.92;101111.55;5072822;58;21133;-84
2021/09/28 01:44:16;;;;;;;12.20;5.33;;;;;;;15.08;75.18;101111.33;5072902;58;21238;-88
2021/09/28 01:49:22;;;;;;;9.13;5.13;;;;;;;15.04;75.58;101110.73;5072318;58;21542;-89
2021/09/28 01:54:29;;;;;;;14.67;6.37;;;;;;;14.95;75.59;101106.70;5071770;58;21245;-88
2021/09/28 01:59:36;;;;;;;11.00;5.67;;;;;;;14.90;75.76;101113.75;5092834;57;21180;-90
2021/09/28 02:04:42;;;;;;;13.80;5.07;;;;;;;14.86;75.86;101115.47;5072402;58;22527;-90
2021/09/28 02:09:48;;;;;;;24.10;5.83;;;;;;;14.81;75.97;101114.56;5088684;57;21182;-89
2021/09/28 02:14:54;;;;;;;16.37;5.07;;;;;;;14.78;76.37;101113.00;5151033;57;21198;-89
2021/09/28 02:20:00;;;;;;;9.27;5.00;;;;;;;14.71;76.42;101110.48;5151575;57;21549;-90
2021/09/28 02:25:07;;;;;;;11.97;5.37;;;;;;;14.69;76.52;101117.76;5151412;57;21711;-85
2021/09/28 02:30:14;;;;;;;10.93;5.20;;;;;;;14.71;76.53;101121.14;5152196;57;21206;-87
2021/09/28 02:35:21;;;;;;;11.13;5.17;;;;;;;14.70;76.59;101126.11;5152714;57;21206;-88
2021/09/28 02:40:28;;;;;;;14.07;4.40;;;;;;;14.71;76.71;101126.95;5152416;57;21210;-86
2021/09/28 02:45:34;;;;;;;8.40;4.53;;;;;;;14.66;76.76;101122.04;5152371;57;21194;-86
2021/09/28 02:50:40;;;;;;;9.37;5.27;;;;;;;14.62;76.81;101127.27;5152232;57;21198;-85
2021/09/28 02:55:45;;;;;;;9.03;5.60;;;;;;;14.56;77.04;101116.27;5152391;57;21227;-86
2021/09/28 03:00:52;;;;;;;10.97;5.47;;;;;;;14.51;77.23;101115.36;5151998;57;21246;-88
2021/09/28 03:05:58;;;;;;;9.10;5.07;;;;;;;14.44;77.40;101123.48;5152130;57;21567;-90
2021/09/28 03:11:03;;;;;;;19.20;5.80;;;;;;;14.39;77.44;101127.82;5154110;57;21238;-88
2021/09/28 03:16:09;;;;;;;17.23;5.57;;;;;;;14.38;77.58;101125.28;5156288;57;22619;-88
2021/09/28 03:21:15;;;;;;;10.67;5.77;;;;;;;14.36;77.87;101129.92;5156487;57;21115;-86
2021/09/28 03:26:21;;;;;;;10.27;5.43;;;;;;;14.29;77.98;101130.06;5156697;57;21502;-88
2021/09/28 03:31:27;;;;;;;16.80;5.63;;;;;;;14.23;78.12;101131.41;5156185;57;21515;-86
2021/09/28 03:36:32;;;;;;;13.33;5.40;;;;;;;14.18;78.17;101137.61;5155913;57;21182;-85
2021/09/28 03:41:39;;;;;;;9.33;5.70;;;;;;;14.21;78.42;101140.48;5156439;57;21174;-86
2021/09/28 03:46:44;;;;;;;14.40;5.97;;;;;;;14.17;78.69;101141.73;5154722;57;21766;-87
2021/09/28 03:51:51;;;;;;;12.17;5.60;;;;;;;14.09;79.12;101143.67;5156349;57;21189;-88
2021/09/28 03:56:56;;;;;;;12.93;5.73;;;;;;;14.04;78.97;101141.41;5157469;57;21134;-88
2021/09/28 04:02:02;;;;;;;13.40;5.63;;;;;;;14.00;79.94;101141.30;5155600;57;21194;-88
2021/09/28 04:07:09;;;;;;;13.33;5.70;;;;;;;13.95;79.62;101150.12;5152860;57;21456;-87
2021/09/28 04:12:18;;;;;;;16.60;5.57;;;;;;;13.94;79.70;101160.41;5095656;57;21955;-86
2021/09/28 04:17:22;;;;;;;13.60;5.47;;;;;;;13.93;79.79;101156.53;5070867;58;21581;-87
2021/09/28 04:22:28;;;;;;;13.03;6.40;;;;;;;13.91;80.33;101159.80;5070509;58;21260;-86
2021/09/28 04:27:35;;;;;;;10.93;5.60;;;;;;;13.90;80.24;101160.28;5070680;58;21494;-85
2021/09/28 04:32:41;;;;;;;7.33;4.93;;;;;;;13.88;80.54;101165.39;4989496;58;21159;-86
2021/09/28 04:37:47;;;;;;;9.30;4.90;;;;;;;13.87;80.54;101168.53;4998097;59;22773;-86
2021/09/28 04:42:52;;;;;;;8.60;5.00;;;;;;;13.88;80.68;101170.71;4997932;59;22442;-86
2021/09/28 04:47:58;;;;;;;10.37;5.00;;;;;;;13.85;80.60;101173.13;4998212;59;21478;-86
2021/09/28 04:53:04;;;;;;;12.60;5.70;;;;;;;13.82;80.66;101172.52;4997844;59;21211;-86
2021/09/28 04:58:11;;;;;;;13.30;6.20;;;;;;;13.81;81.03;101178.81;4997999;59;21206;-87
2021/09/28 05:03:17;;;;;;;10.97;6.03;;;;;;;13.82;80.73;101185.34;4997953;59;21306;-86
2021/09/28 05:08:22;;;;;;;10.20;5.73;;;;;;;13.79;80.87;101192.70;4997884;59;21489;-85
2021/09/28 05:13:29;;;;;;;11.30;5.50;;;;;;;13.76;81.12;101190.28;5042227;58;21635;-86
2021/09/28 05:18:35;;;;;;;11.60;5.60;;;;;;;13.76;81.53;101187.62;5057376;58;21646;-86
2021/09/28 05:23:49;;;;;;;12.97;6.40;;;;;;;13.77;81.19;101198.63;5057326;58;21196;-85
2021/09/28 05:28:51;;;;;;;13.03;5.67;;;;;;;13.79;81.53;101195.36;5061479;57;21670;-86
2021/09/28 05:33:57;;;;;;;10.70;5.63;;;;;;;13.79;81.49;101204.19;5143900;57;21190;-85
2021/09/28 05:39:04;;;;;;;17.17;4.67;;;;;;;13.79;81.63;101205.52;5142266;57;21224;-84
2021/09/28 05:44:09;;;;;;;11.87;5.57;;;;;;;13.81;81.44;101206.73;5126176;57;21127;-85
2021/09/28 05:49:15;;;;;;;14.13;5.40;;;;;;;13.85;81.66;101221.47;5143372;57;21587;-84
2021/09/28 05:54:22;;;;;;;10.37;5.33;;;;;;;13.86;81.52;101213.86;5143600;57;21231;-86
2021/09/28 05:59:29;;;;;;;11.30;5.10;;;;;;;13.88;81.48;101215.91;5143465;57;21186;-85
2021/09/28 06:04:37;;;;;;;15.47;5.63;;;;;;;13.86;81.53;101212.53;5144340;57;21174;-85
2021/09/28 06:09:44;;;;;;;7.60;5.27;;;;;;;13.86;81.64;101228.00;5129676;57;21129;-85
2021/09/28 06:14:50;;;;;;;12.60;5.80;;;;;;;13.87;82.06;101224.38;5062206;58;21225;-85
2021/09/28 06:19:56;;;;;;;12.67;5.20;;;;;;;13.87;81.88;101224.86;5061647;58;21190;-87
2021/09/28 06:25:01;;;;;;;12.90;5.33;;;;;;;13.93;81.88;101234.50;5061775;58;21552;-85
2021/09/28 06:30:08;;;;;;;17.07;6.20;;;;;;;13.97;82.04;101235.95;5062602;57;21204;-85
2021/09/28 06:35:14;;;;;;;32.53;6.97;;;;;;;13.97;82.19;101240.42;5069682;57;21133;-84
2021/09/28 06:40:22;;;;;;;14.63;5.70;;;;;;;14.01;81.92;101246.72;5068904;57;21189;-85
2021/09/28 06:45:29;;;;;;;16.77;5.83;;;;;;;14.03;81.97;101246.11;5069224;57;21197;-85
2021/09/28 06:50:35;;;;;;;22.30;6.23;;;;;;;14.00;81.99;101249.02;5069791;57;21186;-87
2021/09/28 06:55:41;;;;;;;7.87;5.10;;;;;;;14.03;82.28;101255.91;5070313;57;21193;-85
2021/09/28 07:00:50;;;;;;;14.10;5.57;;;;;;;14.09;82.09;101252.73;5070356;57;21122;-86
2021/09/28 07:05:54;;;;;;;6.47;5.17;;;;;;;14.11;81.79;101253.94;5070513;57;21194;-86
2021/09/28 07:11:00;;;;;;;12.63;5.93;;;;;;;14.11;81.96;101253.94;5068432;57;21133;-87
2021/09/28 07:16:07;;;;;;;16.40;5.87;;;;;;;14.08;82.10;101253.70;5065951;58;21510;-84
2021/09/28 07:21:13;;;;;;;10.53;6.17;;;;;;;14.06;81.87;101256.96;5065919;58;21273;-86
2021/09/28 07:26:18;;;;;;;15.40;4.93;;;;;;;14.05;81.84;101257.45;5064280;58;21185;-85
2021/09/28 07:31:24;;;;;;;8.83;5.77;;;;;;;14.04;82.10;101262.92;5064775;58;21805;-87
2021/09/28 07:36:30;;;;;;;8.27;6.23;;;;;;;14.03;82.05;101267.39;5064427;58;21130;-86
2021/09/28 07:41:36;;;;;;;14.53;7.07;;;;;;;14.09;82.15;101264.70;5064201;58;21298;-86
2021/09/28 07:46:42;;;;;;;14.97;7.27;;;;;;;14.16;82.18;101269.91;5064196;58;21478;-85
2021/09/28 07:51:48;;;;;;;17.47;7.90;;;;;;;14.26;82.18;101281.48;5064221;58;21233;-86
2021/09/28 07:56:53;;;;;;;17.40;6.57;;;;;;;14.31;81.90;101285.11;5064532;58;21256;-86
2021/09/28 08:02:00;;;;;;;13.40;6.43;;;;;;;14.36;81.88;101290.41;5064567;58;21209;-85
2021/09/28 08:07:12;;;;;;;16.80;6.77;;;;;;;14.42;81.96;101297.94;5064520;58;21523;-86
2021/09/28 08:12:16;;;;;;;9.87;5.30;;;;;;;14.43;81.82;101296.12;5126162;57;21256;-86
2021/09/28 08:17:23;;;;;;;16.70;6.17;;;;;;;14.48;81.89;101303.73;5152244;57;21190;-85
2021/09/28 08:22:29;;;;;;;14.40;6.80;;;;;;;14.51;82.01;101299.50;5152704;57;21165;-86
2021/09/28 08:32:59;;;;;;;17.57;6.40;;;;;;;14.58;82.21;101302.85;5146244;57;21194;-83
2021/09/28 08:38:05;;;;;;;17.97;7.57;;;;;;;14.64;82.05;101310.84;5110808;57;21120;-84
2021/09/28 08:43:11;;;;;;;18.57;7.47;;;;;;;14.73;82.17;101312.73;5120988;57;21198;-85
2021/09/28 08:48:18;;;;;;;19.63;7.87;;;;;;;14.78;82.10;101318.53;5147907;57;21458;-85
2021/09/28 08:53:24;;;;;;;11.37;7.17;;;;;;;14.81;82.04;101322.77;5151216;57;21195;-85
2021/09/28 08:58:31;;;;;;;12.00;6.97;;;;;;;14.83;81.93;101326.97;5151027;57;21181;-86
2021/09/28 09:03:38;;;;;;;12.93;6.43;;;;;;;14.80;81.72;101330.39;5151059;57;21193;-85
2021/09/28 09:08:48;;;;;;;15.83;7.90;;;;;;;14.75;81.68;101333.42;5151052;57;21209;-86
2021/09/28 09:13:51;;;;;;;17.03;6.63;;;;;;;14.72;81.87;101327.86;5068776;58;21189;-86
2021/09/28 09:19:14;;;;;;;13.07;6.87;;;;;;;14.75;81.98;101318.30;5069770;58;21666;-86
2021/09/28 09:24:48;;;;;;;12.87;7.33;;;;;;;14.83;82.21;101323.45;5069901;58;21268;-87
2021/09/28 09:30:18;;;;;;;14.50;7.47;;;;;;;14.92;82.23;101318.72;5069875;58;21216;-85
2021/09/28 09:35:35;;;;;;;17.97;6.43;;;;;;;15.01;82.51;101328.11;4979983;59;21279;-85
2021/09/28 09:40:43;;;;;;;10.43;7.20;;;;;;;15.04;82.22;101318.53;4977481;59;21280;-86
2021/09/28 09:45:49;;;;;;;12.63;7.50;;;;;;;15.15;82.09;101334.95;4977880;59;21221;-85
2021/09/28 09:51:19;;;;;;;37.43;21.87;;;;;;;15.18;81.82;101340.02;5058388;58;21197;-85
2021/09/28 09:56:51;;;;;;;10.47;6.87;;;;;;;15.18;81.82;101330.70;5055419;58;21382;-85
2021/09/28 10:01:58;;;;;;;18.17;8.40;;;;;;;15.27;81.95;101338.42;5018911;58;21189;-83
2021/09/28 10:07:05;;;;;;;15.30;7.47;;;;;;;15.31;81.60;101335.34;5017241;58;21204;-85
2021/09/28 10:12:12;;;;;;;9.50;6.67;;;;;;;15.33;81.68;101343.22;5037005;58;21248;-84
2021/09/28 10:17:39;;;;;;;11.00;5.97;;;;;;;15.31;82.21;101331.84;5034750;58;21569;-83
2021/09/28 10:22:55;;;;;;;10.97;6.37;;;;;;;15.32;82.47;101336.20;5036711;58;21191;-85
2021/09/28 10:28:12;;;;;;;31.73;8.37;;;;;;;15.38;82.64;101334.36;5046474;58;21144;-84
2021/09/28 10:33:28;;;;;;;14.60;7.80;;;;;;;15.46;83.02;101348.71;5066924;57;22360;-83
2021/09/28 10:38:54;;;;;;;14.87;8.00;;;;;;;15.52;83.10;101355.36;5104974;57;21182;-85
2021/09/28 10:44:37;;;;;;;25.13;7.50;;;;;;;15.54;83.01;101356.08;5105983;57;21174;-86
2021/09/28 10:49:42;;;;;;;10.27;6.50;;;;;;;15.59;83.29;101353.03;5099345;57;21651;-86
2021/09/28 10:55:13;;;;;;;11.57;6.77;;;;;;;15.60;83.48;101360.89;5102954;57;21166;-86
2021/09/28 11:00:19;;;;;;;14.40;6.77;;;;;;;15.60;83.79;101356.89;5092294;57;21201;-85
2021/09/28 11:05:38;;;;;;;15.67;8.47;;;;;;;15.64;83.98;101355.67;5098089;57;21126;-86
2021/09/28 11:10:48;;;;;;;16.97;7.93;;;;;;;15.75;84.21;101354.25;5099817;57;21192;-85
2021/09/28 11:15:59;;;;;;;16.83;7.17;;;;;;;15.80;83.86;101351.20;5069360;57;21173;-86
2021/09/28 11:21:14;;;;;;;21.07;7.67;;;;;;;15.82;84.10;101347.91;5070525;57;21165;-86
2021/09/28 11:26:20;;;;;;;18.63;7.83;;;;;;;15.83;83.89;101347.78;5085554;57;21103;-86
2021/09/28 11:31:35;;;;;;;15.03;7.07;;;;;;;15.90;83.96;101350.74;5123715;57;21165;-86
2021/09/28 11:36:43;;;;;;;19.13;7.70;;;;;;;15.96;83.79;101354.23;5160365;57;21170;-87
2021/09/28 11:41:50;;;;;;;12.33;6.93;;;;;;;16.01;83.94;101356.50;5163381;57;21166;-87
2021/09/28 11:46:57;;;;;;;20.63;8.67;;;;;;;16.11;83.82;101356.05;5163050;57;21532;-88
2021/09/28 11:52:05;;;;;;;20.83;7.83;;;;;;;16.19;83.06;101350.38;5154739;57;21186;-87
2021/09/28 11:57:11;;;;;;;17.40;7.80;;;;;;;16.31;83.77;101343.14;5150917;57;21193;-86
2021/09/28 12:02:21;;;;;;;19.93;7.37;;;;;;;16.65;84.10;101343.64;5152249;57;21181;-86
2021/09/28 12:12:43;;;;;;;14.30;7.20;;;;;;;17.13;82.21;101332.14;5152329;57;21201;-85
2021/09/28 12:17:49;;;;;;;13.37;7.07;;;;;;;17.24;80.56;101334.70;5152690;57;21221;-86
2021/09/28 12:23:03;;;;;;;14.83;7.23;;;;;;;17.31;80.47;101334.95;5152661;57;21551;-86
2021/09/28 12:28:09;;;;;;;12.30;6.67;;;;;;;17.41;79.77;101338.48;5152614;57;21741;-87
2021/09/28 12:33:16;;;;;;;16.07;7.40;;;;;;;17.37;79.37;101343.27;5153522;57;21114;-86
2021/09/28 12:38:22;;;;;;;20.63;7.23;;;;;;;17.40;80.07;101333.62;5165872;57;21189;-87
2021/09/28 12:43:29;;;;;;;23.43;7.37;;;;;;;17.54;80.16;101335.84;5167194;57;21196;-86
2021/09/28 12:48:45;;;;;;;14.10;6.03;;;;;;;17.70;79.79;101333.09;5167016;57;21190;-86
2021/09/28 12:53:52;;;;;;;15.80;6.77;;;;;;;17.81;79.12;101328.41;5166852;57;21194;-87
2021/09/28 12:58:58;;;;;;;13.63;6.47;;;;;;;17.87;79.19;101332.34;5166591;57;21217;-87
2021/09/28 13:04:04;;;;;;;17.33;5.77;;;;;;;17.91;79.11;101335.05;5166205;57;21879;-87
2021/09/28 13:09:12;;;;;;;14.50;6.40;;;;;;;17.92;78.27;101338.08;5166756;57;21197;-87
2021/09/28 13:14:18;;;;;;;15.73;6.17;;;;;;;17.86;77.96;101342.20;5167100;57;21177;-88
2021/09/28 13:19:23;;;;;;;12.77;6.77;;;;;;;17.83;77.96;101346.50;5153629;57;21185;-86
2021/09/28 13:24:29;;;;;;;14.13;6.43;;;;;;;17.77;77.85;101340.88;5083472;58;21447;-86
2021/09/28 13:29:35;;;;;;;9.43;5.70;;;;;;;17.72;77.78;101336.47;5083934;58;21181;-86
2021/09/28 13:34:41;;;;;;;11.10;5.30;;;;;;;17.70;77.72;101329.92;5083587;58;21209;-85
2021/09/28 13:39:47;;;;;;;11.90;5.40;;;;;;;17.69;78.07;101335.41;5084912;58;21201;-88
2021/09/28 13:44:52;;;;;;;17.73;8.73;;;;;;;17.68;78.30;101330.56;5084924;58;21126;-90
2021/09/28 13:49:58;;;;;;;10.90;6.00;;;;;;;17.76;78.40;101325.31;5107637;57;21197;-90
2021/09/28 13:55:06;;;;;;;11.43;5.87;;;;;;;17.95;78.63;101332.93;5169697;57;21709;-87
2021/09/28 14:00:13;;;;;;;18.33;6.67;;;;;;;18.11;78.58;101336.66;5168651;57;21568;-89
2021/09/28 14:05:19;;;;;;;15.00;6.60;;;;;;;18.22;78.29;101331.11;5168207;57;21259;-87
2021/09/28 14:10:25;;;;;;;7.57;5.43;;;;;;;18.30;77.49;101333.06;5135040;57;21506;-89
2021/09/28 14:15:31;;;;;;;23.83;5.70;;;;;;;18.28;76.42;101339.90;5173305;57;21154;-88
2021/09/28 14:20:36;;;;;;;16.90;9.03;;;;;;;18.23;76.20;101339.98;5176634;57;21508;-92
2021/09/28 14:25:42;;;;;;;8.30;4.60;;;;;;;18.24;76.54;101345.19;5177185;57;21138;-93
2021/09/28 14:30:50;;;;;;;8.13;4.77;;;;;;;18.19;76.19;101350.14;5177608;57;21162;-88
2021/09/28 14:35:55;;;;;;;11.57;5.00;;;;;;;18.14;76.10;101351.10;5177711;57;21209;-90
2021/09/28 14:41:03;;;;;;;13.60;6.67;;;;;;;18.14;76.14;101349.77;5174162;57;21209;-88
2021/09/28 14:46:09;;;;;;;15.27;7.03;;;;;;;18.11;75.51;101346.53;5167288;57;21186;-86
2021/09/28 14:51:15;;;;;;;9.67;5.50;;;;;;;18.11;75.80;101345.19;5166350;57;21726;-86
2021/09/28 14:56:21;;;;;;;18.30;5.90;;;;;;;18.10;75.54;101347.52;5169895;57;21279;-87
2021/09/28 15:01:28;;;;;;;15.70;6.20;;;;;;;18.09;75.98;101350.69;5169434;57;21198;-89
2021/09/28 15:06:34;;;;;;;10.80;5.07;;;;;;;18.09;75.79;101350.69;5169205;57;21494;-90
2021/09/28 15:11:40;;;;;;;12.77;5.40;;;;;;;18.07;75.42;101351.82;5168625;57;21730;-87
2021/09/28 15:16:45;;;;;;;9.03;5.83;;;;;;;18.00;75.17;101351.58;5143971;57;21193;-85
2021/09/28 15:21:52;;;;;;;17.77;6.90;;;;;;;17.93;75.34;101350.47;5161535;57;21265;-87
2021/09/28 15:26:58;;;;;;;14.47;5.77;;;;;;;17.87;75.53;101358.58;5168901;57;21181;-86
2021/09/28 15:32:11;;;;;;;10.47;4.70;;;;;;;17.85;75.53;101349.88;5167570;57;21201;-89
2021/09/28 15:37:17;;;;;;;23.05;4.33;;;;;;;17.84;75.58;101350.86;5164417;57;21189;-88
2021/09/28 15:42:22;;;;;;;17.53;5.13;;;;;;;17.80;75.50;101355.30;5154369;57;21185;-87
2021/09/28 15:47:28;;;;;;;7.93;4.57;;;;;;;17.77;75.67;101355.59;5154769;57;21174;-90
2021/09/28 15:52:36;;;;;;;6.67;4.53;;;;;;;17.69;75.88;101355.48;5089973;57;21199;-89
2021/09/28 15:57:41;;;;;;;13.43;7.70;;;;;;;17.66;76.01;101357.95;5071811;58;21195;-88
2021/09/28 16:02:47;;;;;;;11.23;8.13;;;;;;;17.65;76.21;101356.26;5071189;58;21214;-86
2021/09/28 16:07:53;;;;;;;17.00;5.93;;;;;;;17.63;76.53;101363.55;5070301;58;21680;-85
2021/09/28 16:12:59;;;;;;;40.07;8.70;;;;;;;17.61;76.90;101368.19;5091922;57;21166;-88
2021/09/28 16:18:05;;;;;;;59.20;15.47;;;;;;;17.57;77.14;101376.14;5154053;57;21111;-88
2021/09/28 16:23:11;;;;;;;22.47;10.37;;;;;;;17.55;77.16;101374.14;5155675;57;21867;-88
2021/09/28 16:28:17;;;;;;;39.47;22.27;;;;;;;17.54;77.29;101380.47;5154791;57;21194;-88
2021/09/28 16:33:26;;;;;;;48.47;31.07;;;;;;;17.53;77.58;101378.28;5155096;57;21185;-89
2021/09/28 16:38:33;;;;;;;43.20;20.17;;;;;;;17.49;77.68;101381.38;5159508;57;21453;-87
2021/09/28 16:43:44;;;;;;;20.80;10.67;;;;;;;17.41;77.75;101386.13;5168999;57;22252;-86
2021/09/28 16:48:52;;;;;;;22.87;10.30;;;;;;;17.43;77.67;101391.30;5166254;57;21802;-89
2021/09/28 16:53:58;;;;;;;24.27;10.73;;;;;;;17.41;77.61;101388.80;5085019;58;21382;-86
2021/09/28 16:59:04;;;;;;;16.60;7.23;;;;;;;17.38;77.66;101386.89;5082611;58;21545;-85
2021/09/28 17:04:09;;;;;;;14.30;6.50;;;;;;;17.35;77.61;101387.17;5163287;57;21173;-90
2021/09/28 17:09:16;;;;;;;15.60;6.10;;;;;;;17.29;77.62;101384.55;5166869;57;21182;-87
2021/09/28 17:14:22;;;;;;;12.63;5.83;;;;;;;17.27;77.46;101381.66;5170669;57;21229;-90
2021/09/28 17:19:28;;;;;;;11.87;6.70;;;;;;;17.25;77.41;101389.86;5168846;57;21243;-87
2021/09/28 17:24:34;;;;;;;14.77;5.57;;;;;;;17.18;77.41;101389.56;5166716;57;21221;-87
2021/09/28 17:29:39;;;;;;;16.73;6.23;;;;;;;17.12;77.34;101382.09;5169822;57;21166;-89
2021/09/28 17:34:49;;;;;;;11.80;6.20;;;;;;;17.05;77.27;101387.66;5169812;57;21181;-89
2021/09/28 17:39:59;;;;;;;18.23;6.47;;;;;;;17.00;77.26;101381.88;5159977;57;21443;-87
2021/09/28 17:45:09;;;;;;;15.17;6.60;;;;;;;16.97;77.30;101382.64;5156343;57;21198;-88
2021/09/28 17:50:15;;;;;;;12.60;6.77;;;;;;;16.93;77.36;101379.42;5155051;57;21466;-84
2021/09/28 17:55:39;;;;;;;13.97;7.20;;;;;;;16.87;77.36;101378.14;5150504;57;21664;-87
2021/09/28 18:00:33;;;;;;;15.27;6.67;;;;;;;16.81;77.32;101383.18;5148726;57;21261;-88
2021/09/28 18:05:39;;;;;;;13.67;5.80;;;;;;;16.77;77.32;101379.13;5146417;57;21435;-87
2021/09/28 18:10:44;;;;;;;11.50;6.10;;;;;;;16.73;77.32;101385.22;5175790;56;21184;-88
2021/09/28 18:15:50;;;;;;;11.63;6.57;;;;;;;16.70;76.84;101384.64;5163021;57;21521;-91
2021/09/28 18:20:56;;;;;;;15.60;7.33;;;;;;;16.65;77.13;101388.24;5160096;57;21599;-87
2021/09/28 18:26:02;;;;;;;11.20;6.33;;;;;;;16.60;76.90;101387.77;5163421;57;21156;-86
2021/09/28 18:31:08;;;;;;;13.23;6.73;;;;;;;16.54;76.84;101385.13;5162418;57;21504;-87
2021/09/28 18:36:18;;;;;;;18.87;7.30;;;;;;;16.54;76.87;101390.47;5114785;57;21491;-86
2021/09/28 18:46:38;;;;;;;11.27;5.83;;;;;;;16.41;76.86;101389.39;5078437;57;21166;-89
2021/09/28 18:51:43;;;;;;;12.07;5.83;;;;;;;16.37;77.03;101393.79;5139124;57;21442;-87
2021/09/28 18:57:00;;;;;;;8.30;5.70;;;;;;;16.36;76.93;101389.42;5126573;57;21225;-87
2021/09/28 19:01:59;;;;;;;14.43;7.60;;;;;;;16.33;76.96;101389.72;5158919;57;21189;-87
2021/09/28 19:07:18;;;;;;;13.13;6.80;;;;;;;16.31;77.02;101399.20;5128228;57;21146;-91
2021/09/28 19:12:25;;;;;;;16.83;6.47;;;;;;;16.26;77.10;101398.74;5119055;57;21151;-90
2021/09/28 19:17:31;;;;;;;10.00;5.93;;;;;;;16.24;77.04;101396.70;5120689;57;21208;-89
2021/09/28 19:22:36;;;;;;;16.83;7.57;;;;;;;16.21;76.98;101401.45;5122697;57;21204;-87
2021/09/28 19:27:42;;;;;;;16.37;6.10;;;;;;;16.18;77.02;101408.77;5118833;57;21096;-87
2021/09/28 19:32:48;;;;;;;13.77;6.93;;;;;;;16.13;76.78;101409.65;5122476;57;21154;-90
2021/09/28 19:37:55;;;;;;;10.90;5.87;;;;;;;16.11;76.63;101412.94;5117827;57;21167;-88
2021/09/28 19:43:03;;;;;;;12.73;5.83;;;;;;;16.09;76.49;101412.22;5134528;57;21649;-88
2021/09/28 19:48:11;;;;;;;10.23;5.53;;;;;;;16.04;76.56;101407.76;5135292;57;21119;-86
2021/09/28 19:53:16;;;;;;;11.10;5.67;;;;;;;15.99;76.47;101407.81;5135741;57;21155;-88
2021/09/28 20:03:44;;;;;;;15.63;6.17;;;;;;;15.93;76.50;101409.67;5143822;57;21729;-88
2021/09/28 20:36:00;;;;;;;14.87;7.40;;;;;;;15.86;76.39;101407.19;5174144;57;21169;-87
2021/09/28 20:41:00;;;;;;;;;;;;;;;15.58;76.52;101408.69;5180891;57;21161;-86
2021/09/28 20:46:06;;;;;;;13.97;6.00;;;;;;;15.56;76.40;101419.48;5177010;57;20489;-85
2021/09/28 20:51:14;;;;;;;10.87;4.80;;;;;;;15.54;76.39;101425.88;5175162;57;21179;-87
2021/09/28 20:56:22;;;;;;;9.93;5.10;;;;;;;15.47;75.86;101420.20;5172633;57;21174;-89
2021/09/28 21:01:28;;;;;;;7.70;4.47;;;;;;;15.48;75.38;101416.08;5172504;57;21166;-88
2021/09/28 21:06:34;;;;;;;8.37;5.20;;;;;;;15.47;75.66;101421.05;5172495;57;21171;-87
2021/09/28 21:11:42;;;;;;;8.00;4.20;;;;;;;15.46;75.49;101422.52;5172062;57;21174;-91
2021/09/28 21:16:47;;;;;;;12.30;4.93;;;;;;;15.41;74.99;101426.92;5172314;57;21115;-90
2021/09/28 21:21:53;;;;;;;11.47;5.17;;;;;;;15.40;74.82;101431.89;5172354;57;21159;-86
2021/09/28 21:26:59;;;;;;;19.63;9.73;;;;;;;15.38;74.45;101423.17;5171474;57;21189;-87
2021/09/28 21:32:09;;;;;;;27.17;14.90;;;;;;;15.32;73.63;101430.33;5171087;57;21185;-86
2021/09/28 21:37:13;;;;;;;8.50;4.87;;;;;;;15.25;73.89;101423.83;5171259;57;21174;-86
2021/09/28 21:42:19;;;;;;;10.43;4.13;;;;;;;15.15;73.77;101417.55;5165790;57;21169;-89
2021/09/28 21:47:25;;;;;;;9.23;3.97;;;;;;;15.10;73.92;101418.44;5157571;57;21146;-86
2021/09/28 21:52:31;;;;;;;9.17;4.43;;;;;;;15.10;73.75;101419.77;5091087;57;21175;-87
2021/09/28 21:57:38;;;;;;;8.37;4.00;;;;;;;15.05;73.56;101414.81;5072584;58;21128;-89
2021/09/28 22:02:47;;;;;;;10.83;4.37;;;;;;;15.04;73.69;101408.27;5072398;58;21215;-87
2021/09/28 22:07:54;;;;;;;13.17;4.63;;;;;;;15.02;74.08;101413.72;5072634;58;21195;-87
2021/09/28 22:13:00;;;;;;;8.90;4.33;;;;;;;15.00;74.00;101419.66;5071775;58;21562;-84
2021/09/28 22:18:07;;;;;;;10.50;4.20;;;;;;;14.95;73.92;101421.88;5070132;58;21199;-85
2021/09/28 22:23:12;;;;;;;9.67;4.80;;;;;;;14.95;73.95;101425.02;5068995;58;21192;-88
2021/09/28 22:28:19;;;;;;;9.17;5.27;;;;;;;14.92;74.07;101429.26;5068788;57;21226;-87
2021/09/28 22:33:25;;;;;;;11.23;5.80;;;;;;;14.87;74.08;101422.97;5089925;57;21231;-89
2021/09/28 22:38:31;;;;;;;6.83;4.97;;;;;;;14.81;74.01;101428.80;5069732;58;21195;-88
2021/09/28 22:43:38;;;;;;;11.00;5.00;;;;;;;14.74;74.09;101423.60;5076567;58;21188;-87
2021/09/28 22:48:45;;;;;;;8.27;4.83;;;;;;;14.69;74.07;101419.12;5085899;57;21591;-86
2021/09/28 22:53:50;;;;;;;10.83;5.97;;;;;;;14.65;73.90;101426.53;5141981;57;21211;-88
2021/09/28 22:58:56;;;;;;;10.00;5.27;;;;;;;14.59;74.04;101430.16;5141715;57;21134;-87
2021/09/28 23:04:02;;;;;;;6.87;4.73;;;;;;;14.51;74.18;101436.11;5141573;57;21181;-89
2021/09/28 23:09:08;;;;;;;10.30;4.67;;;;;;;14.45;74.24;101437.91;5141397;57;21251;-88
2021/09/28 23:14:14;;;;;;;10.50;4.63;;;;;;;14.38;74.39;101433.52;5141412;57;21198;-88
2021/09/28 23:19:19;;;;;;;11.33;4.77;;;;;;;14.40;74.40;101440.08;5141658;57;21210;-85
2021/09/28 23:24:25;;;;;;;8.10;4.70;;;;;;;14.35;74.31;101435.11;5141424;57;21127;-87
2021/09/28 23:29:31;;;;;;;8.17;4.20;;;;;;;14.29;74.49;101426.27;5141582;57;21237;-89
2021/09/28 23:34:37;;;;;;;8.97;4.77;;;;;;;14.27;74.61;101427.34;5142109;57;21206;-85
2021/09/28 23:39:42;;;;;;;11.53;4.77;;;;;;;14.22;74.61;101427.70;5141212;57;21217;-89
2021/09/28 23:44:48;;;;;;;9.27;4.20;;;;;;;14.17;74.63;101422.39;5141563;57;21198;-86
2021/09/28 23:49:54;;;;;;;10.03;5.20;;;;;;;14.15;74.59;101430.50;5128063;57;21285;-89
2021/09/28 23:54:59;;;;;;;7.57;5.00;;;;;;;14.11;74.71;101420.20;5083717;58;21140;-91
